sensor_id;sensor_type;location;lat;lon;timestamp;temperature;humidity
8436;DHT22;4255;48.730;9.156;2023-06-14T00:01:50;17.90;99.90
8436;DHT22;4255;48.730;9.156;2023-06-14T00:04:15;17.80;99.90
8436;DHT22;4255;48.730;9.156;2023-06-14T00:06:46;17.80;1.00
8436;DHT22;4255;48.730;9.156;2023-06-14T00:09:12;17.80;46.30
8436;DHT22;4255;48.730;9.156;2023-06-14T00:11:39;17.80;46.60
8436;DHT22;4255;48.730;9.156;2023-06-14T00:14:05;17.80;46.60
8436;DHT22;4255;48.730;9.156;2023-06-14T00:16:31;17.70;47.30
8436;DHT22;4255;48.730;9.156;2023-06-14T00:18:59;17.60;49.00
8436;DHT22;4255;48.730;9.156;2023-06-14T00:21:24;17.60;49.10
8436;DHT22;4255;48.730;9.156;2023-06-14T00:23:50;17.50;49.80
8436;DHT22;4255;48.730;9.156;2023-06-14T00:26:16;17.50;50.20
8436;DHT22;4255;48.730;9.156;2023-06-14T00:28:41;17.40;51.50
8436;DHT22;4255;48.730;9.156;2023-06-14T00:31:07;17.40;51.40
8436;DHT22;4255;48.730;9.156;2023-06-14T00:33:33;17.30;52.20
8436;DHT22;4255;48.730;9.156;2023-06-14T00:35:58;17.30;52.10
8436;DHT22;4255;48.730;9.156;2023-06-14T00:38:24;17.30;52.90
8436;DHT22;4255;48.730;9.156;2023-06-14T00:40:49;17.30;53.20
8436;DHT22;4255;48.730;9.156;2023-06-14T00:43:15;17.30;53.80
8436;DHT22;4255;48.730;9.156;2023-06-14T00:45:40;17.20;54.40
8436;DHT22;4255;48.730;9.156;2023-06-14T00:48:06;17.10;54.90
8436;DHT22;4255;48.730;9.156;2023-06-14T00:50:33;17.20;55.20
8436;DHT22;4255;48.730;9.156;2023-06-14T00:53:00;17.20;56.00
8436;DHT22;4255;48.730;9.156;2023-06-14T00:55:27;17.10;57.20
8436;DHT22;4255;48.730;9.156;2023-06-14T00:57:56;17.10;57.40
8436;DHT22;4255;48.730;9.156;2023-06-14T01:00:22;17.20;57.80
8436;DHT22;4255;48.730;9.156;2023-06-14T01:02:47;17.10;57.80
8436;DHT22;4255;48.730;9.156;2023-06-14T01:05:15;17.00;57.70
8436;DHT22;4255;48.730;9.156;2023-06-14T01:13:29;16.80;59.00
8436;DHT22;4255;48.730;9.156;2023-06-14T01:15:47;16.80;58.00
8436;DHT22;4255;48.730;9.156;2023-06-14T01:18:13;16.80;58.70
8436;DHT22;4255;48.730;9.156;2023-06-14T01:20:46;16.80;58.30
8436;DHT22;4255;48.730;9.156;2023-06-14T01:23:18;16.80;59.70
8436;DHT22;4255;48.730;9.156;2023-06-14T01:25:43;16.80;63.60
8436;DHT22;4255;48.730;9.156;2023-06-14T01:28:10;16.60;67.20
8436;DHT22;4255;48.730;9.156;2023-06-14T01:30:40;16.60;64.30
8436;DHT22;4255;48.730;9.156;2023-06-14T01:33:15;16.60;65.60
8436;DHT22;4255;48.730;9.156;2023-06-14T01:35:46;16.60;66.30
8436;DHT22;4255;48.730;9.156;2023-06-14T01:38:17;16.60;65.60
8436;DHT22;4255;48.730;9.156;2023-06-14T01:40:45;16.60;64.00
8436;DHT22;4255;48.730;9.156;2023-06-14T01:43:13;16.60;63.00
8436;DHT22;4255;48.730;9.156;2023-06-14T01:45:41;16.50;62.70
8436;DHT22;4255;48.730;9.156;2023-06-14T01:48:07;16.40;61.70
8436;DHT22;4255;48.730;9.156;2023-06-14T01:50:34;16.30;62.00
8436;DHT22;4255;48.730;9.156;2023-06-14T01:53:00;16.20;62.20
8436;DHT22;4255;48.730;9.156;2023-06-14T01:55:26;16.20;61.70
8436;DHT22;4255;48.730;9.156;2023-06-14T01:57:52;15.90;63.00
8436;DHT22;4255;48.730;9.156;2023-06-14T02:00:18;16.00;63.60
8436;DHT22;4255;48.730;9.156;2023-06-14T02:02:44;16.00;63.20
8436;DHT22;4255;48.730;9.156;2023-06-14T02:05:11;16.10;63.30
8436;DHT22;4255;48.730;9.156;2023-06-14T02:07:37;16.10;64.00
8436;DHT22;4255;48.730;9.156;2023-06-14T02:10:04;16.20;64.80
8436;DHT22;4255;48.730;9.156;2023-06-14T02:12:29;16.10;64.60
8436;DHT22;4255;48.730;9.156;2023-06-14T02:14:55;16.10;65.90
8436;DHT22;4255;48.730;9.156;2023-06-14T02:17:22;16.10;66.60
8436;DHT22;4255;48.730;9.156;2023-06-14T02:19:47;16.10;67.50
8436;DHT22;4255;48.730;9.156;2023-06-14T02:22:14;16.10;68.10
8436;DHT22;4255;48.730;9.156;2023-06-14T02:24:41;16.10;68.90
8436;DHT22;4255;48.730;9.156;2023-06-14T02:27:07;16.10;68.90
8436;DHT22;4255;48.730;9.156;2023-06-14T02:29:35;16.00;69.40
8436;DHT22;4255;48.730;9.156;2023-06-14T02:32:01;16.00;71.00
8436;DHT22;4255;48.730;9.156;2023-06-14T02:34:27;16.00;71.20
8436;DHT22;4255;48.730;9.156;2023-06-14T02:36:52;15.90;71.60
8436;DHT22;4255;48.730;9.156;2023-06-14T02:39:18;15.90;72.70
8436;DHT22;4255;48.730;9.156;2023-06-14T02:41:46;15.80;73.20
8436;DHT22;4255;48.730;9.156;2023-06-14T02:44:13;15.80;74.40
8436;DHT22;4255;48.730;9.156;2023-06-14T02:46:39;15.80;75.40
8436;DHT22;4255;48.730;9.156;2023-06-14T02:49:05;15.80;76.90
8436;DHT22;4255;48.730;9.156;2023-06-14T02:51:31;15.70;77.00
8436;DHT22;4255;48.730;9.156;2023-06-14T02:53:56;15.70;79.30
8436;DHT22;4255;48.730;9.156;2023-06-14T02:56:22;15.70;79.00
8436;DHT22;4255;48.730;9.156;2023-06-14T02:58:48;15.60;82.40
8436;DHT22;4255;48.730;9.156;2023-06-14T03:01:14;15.60;81.80
8436;DHT22;4255;48.730;9.156;2023-06-14T03:03:40;15.60;82.40
8436;DHT22;4255;48.730;9.156;2023-06-14T03:06:05;15.60;83.00
8436;DHT22;4255;48.730;9.156;2023-06-14T03:08:31;15.60;84.00
8436;DHT22;4255;48.730;9.156;2023-06-14T03:11:04;15.60;84.70
8436;DHT22;4255;48.730;9.156;2023-06-14T03:13:31;15.50;85.40
8436;DHT22;4255;48.730;9.156;2023-06-14T03:15:59;15.50;85.50
8436;DHT22;4255;48.730;9.156;2023-06-14T03:18:29;15.50;86.30
8436;DHT22;4255;48.730;9.156;2023-06-14T03:20:55;15.60;86.60
8436;DHT22;4255;48.730;9.156;2023-06-14T03:23:23;15.60;85.70
8436;DHT22;4255;48.730;9.156;2023-06-14T03:25:48;15.70;85.70
8436;DHT22;4255;48.730;9.156;2023-06-14T03:28:14;15.60;85.90
8436;DHT22;4255;48.730;9.156;2023-06-14T03:30:40;15.60;87.10
8436;DHT22;4255;48.730;9.156;2023-06-14T03:33:05;15.70;86.60
8436;DHT22;4255;48.730;9.156;2023-06-14T03:35:31;15.60;86.60
8436;DHT22;4255;48.730;9.156;2023-06-14T03:37:57;15.60;87.20
8436;DHT22;4255;48.730;9.156;2023-06-14T03:40:22;15.60;86.20
8436;DHT22;4255;48.730;9.156;2023-06-14T03:42:51;15.60;86.40
8436;DHT22;4255;48.730;9.156;2023-06-14T03:45:16;15.60;86.40
8436;DHT22;4255;48.730;9.156;2023-06-14T03:47:42;15.60;86.20
8436;DHT22;4255;48.730;9.156;2023-06-14T03:50:08;15.70;86.40
8436;DHT22;4255;48.730;9.156;2023-06-14T03:52:33;15.80;86.70
8436;DHT22;4255;48.730;9.156;2023-06-14T03:54:59;15.80;87.00
8436;DHT22;4255;48.730;9.156;2023-06-14T03:57:25;15.90;87.50
8436;DHT22;4255;48.730;9.156;2023-06-14T03:59:51;16.00;87.70
8436;DHT22;4255;48.730;9.156;2023-06-14T04:02:17;16.10;87.30
8436;DHT22;4255;48.730;9.156;2023-06-14T04:04:43;16.40;87.00
8436;DHT22;4255;48.730;9.156;2023-06-14T04:07:11;16.60;85.80
8436;DHT22;4255;48.730;9.156;2023-06-14T04:09:38;16.80;85.10
8436;DHT22;4255;48.730;9.156;2023-06-14T04:12:05;17.00;84.60
8436;DHT22;4255;48.730;9.156;2023-06-14T04:14:30;17.10;83.80
8436;DHT22;4255;48.730;9.156;2023-06-14T04:16:58;17.40;83.20
8436;DHT22;4255;48.730;9.156;2023-06-14T04:19:24;17.60;82.40
8436;DHT22;4255;48.730;9.156;2023-06-14T04:21:50;17.80;81.30
8436;DHT22;4255;48.730;9.156;2023-06-14T04:24:15;17.80;83.30
8436;DHT22;4255;48.730;9.156;2023-06-14T04:26:42;17.70;81.40
8436;DHT22;4255;48.730;9.156;2023-06-14T04:29:10;17.70;81.30
8436;DHT22;4255;48.730;9.156;2023-06-14T04:31:40;17.70;81.70
8436;DHT22;4255;48.730;9.156;2023-06-14T04:34:05;17.70;82.20
8436;DHT22;4255;48.730;9.156;2023-06-14T04:36:35;17.40;82.70
8436;DHT22;4255;48.730;9.156;2023-06-14T04:39:04;17.10;84.10
8436;DHT22;4255;48.730;9.156;2023-06-14T04:41:30;17.10;85.30
8436;DHT22;4255;48.730;9.156;2023-06-14T04:44:00;17.10;86.30
8436;DHT22;4255;48.730;9.156;2023-06-14T04:46:29;17.10;87.70
8436;DHT22;4255;48.730;9.156;2023-06-14T04:48:55;17.10;88.40
8436;DHT22;4255;48.730;9.156;2023-06-14T04:51:22;17.00;88.20
8436;DHT22;4255;48.730;9.156;2023-06-14T04:53:55;16.90;88.40
8436;DHT22;4255;48.730;9.156;2023-06-14T04:56:23;16.90;88.50
8436;DHT22;4255;48.730;9.156;2023-06-14T04:58:48;16.80;88.20
8436;DHT22;4255;48.730;9.156;2023-06-14T05:01:14;16.90;88.70
8436;DHT22;4255;48.730;9.156;2023-06-14T05:03:40;16.80;88.80
8436;DHT22;4255;48.730;9.156;2023-06-14T05:06:06;17.00;90.00
8436;DHT22;4255;48.730;9.156;2023-06-14T05:08:32;17.20;89.40
8436;DHT22;4255;48.730;9.156;2023-06-14T05:10:57;17.50;88.60
8436;DHT22;4255;48.730;9.156;2023-06-14T05:13:23;17.50;88.90
8436;DHT22;4255;48.730;9.156;2023-06-14T05:15:49;17.40;85.80
8436;DHT22;4255;48.730;9.156;2023-06-14T05:18:15;17.20;86.00
8436;DHT22;4255;48.730;9.156;2023-06-14T05:20:41;17.20;85.90
8436;DHT22;4255;48.730;9.156;2023-06-14T05:23:08;17.10;85.10
8436;DHT22;4255;48.730;9.156;2023-06-14T05:25:34;17.10;86.80
8436;DHT22;4255;48.730;9.156;2023-06-14T05:27:59;17.30;87.60
8436;DHT22;4255;48.730;9.156;2023-06-14T05:30:25;17.50;87.30
8436;DHT22;4255;48.730;9.156;2023-06-14T05:32:51;17.60;87.00
8436;DHT22;4255;48.730;9.156;2023-06-14T05:35:18;17.60;88.10
8436;DHT22;4255;48.730;9.156;2023-06-14T05:37:44;17.80;85.60
8436;DHT22;4255;48.730;9.156;2023-06-14T05:40:10;17.70;87.10
8436;DHT22;4255;48.730;9.156;2023-06-14T05:42:35;17.90;86.30
8436;DHT22;4255;48.730;9.156;2023-06-14T05:45:01;18.20;88.00
8436;DHT22;4255;48.730;9.156;2023-06-14T05:47:27;18.30;87.30
8436;DHT22;4255;48.730;9.156;2023-06-14T05:49:53;18.50;89.00
8436;DHT22;4255;48.730;9.156;2023-06-14T05:52:20;18.70;82.80
8436;DHT22;4255;48.730;9.156;2023-06-14T05:54:46;18.50;82.10
8436;DHT22;4255;48.730;9.156;2023-06-14T05:57:11;18.70;83.60
8436;DHT22;4255;48.730;9.156;2023-06-14T05:59:37;18.70;80.50
8436;DHT22;4255;48.730;9.156;2023-06-14T06:02:03;18.80;79.70
8436;DHT22;4255;48.730;9.156;2023-06-14T06:04:28;18.70;80.60
8436;DHT22;4255;48.730;9.156;2023-06-14T06:06:54;18.70;79.10
8436;DHT22;4255;48.730;9.156;2023-06-14T06:09:20;18.90;79.90
8436;DHT22;4255;48.730;9.156;2023-06-14T06:11:45;19.10;80.40
8436;DHT22;4255;48.730;9.156;2023-06-14T06:14:11;19.20;77.10
8436;DHT22;4255;48.730;9.156;2023-06-14T06:16:36;19.30;79.00
8436;DHT22;4255;48.730;9.156;2023-06-14T06:19:02;19.40;77.70
8436;DHT22;4255;48.730;9.156;2023-06-14T06:21:27;19.70;77.70
8436;DHT22;4255;48.730;9.156;2023-06-14T06:23:53;19.60;75.60
8436;DHT22;4255;48.730;9.156;2023-06-14T06:26:21;19.50;73.50
8436;DHT22;4255;48.730;9.156;2023-06-14T06:28:47;19.30;73.30
8436;DHT22;4255;48.730;9.156;2023-06-14T06:31:12;19.40;73.40
8436;DHT22;4255;48.730;9.156;2023-06-14T06:33:38;19.50;72.90
8436;DHT22;4255;48.730;9.156;2023-06-14T06:36:05;19.50;74.60
8436;DHT22;4255;48.730;9.156;2023-06-14T06:38:31;19.60;74.40
8436;DHT22;4255;48.730;9.156;2023-06-14T06:40:57;19.70;74.10
8436;DHT22;4255;48.730;9.156;2023-06-14T06:43:22;19.80;73.20
8436;DHT22;4255;48.730;9.156;2023-06-14T06:45:48;20.10;71.50
8436;DHT22;4255;48.730;9.156;2023-06-14T06:48:14;20.30;71.00
8436;DHT22;4255;48.730;9.156;2023-06-14T06:50:41;20.40;69.50
8436;DHT22;4255;48.730;9.156;2023-06-14T06:53:06;20.50;69.70
8436;DHT22;4255;48.730;9.156;2023-06-14T06:55:32;20.50;70.20
8436;DHT22;4255;48.730;9.156;2023-06-14T06:57:58;20.40;68.10
8436;DHT22;4255;48.730;9.156;2023-06-14T07:00:25;20.40;69.10
8436;DHT22;4255;48.730;9.156;2023-06-14T07:02:50;20.40;67.70
8436;DHT22;4255;48.730;9.156;2023-06-14T07:05:16;20.40;68.10
8436;DHT22;4255;48.730;9.156;2023-06-14T07:07:42;20.40;67.60
8436;DHT22;4255;48.730;9.156;2023-06-14T07:10:07;20.30;67.00
8436;DHT22;4255;48.730;9.156;2023-06-14T07:12:33;20.30;68.70
8436;DHT22;4255;48.730;9.156;2023-06-14T07:15:01;20.30;69.20
8436;DHT22;4255;48.730;9.156;2023-06-14T07:17:27;20.70;70.20
8436;DHT22;4255;48.730;9.156;2023-06-14T07:19:52;20.70;67.20
8436;DHT22;4255;48.730;9.156;2023-06-14T07:22:19;20.80;67.40
8436;DHT22;4255;48.730;9.156;2023-06-14T07:24:45;21.00;69.70
8436;DHT22;4255;48.730;9.156;2023-06-14T07:27:11;21.10;69.50
8436;DHT22;4255;48.730;9.156;2023-06-14T07:29:38;20.90;66.80
8436;DHT22;4255;48.730;9.156;2023-06-14T07:32:04;21.10;67.10
8436;DHT22;4255;48.730;9.156;2023-06-14T07:34:30;21.10;66.10
8436;DHT22;4255;48.730;9.156;2023-06-14T07:36:55;20.90;66.60
8436;DHT22;4255;48.730;9.156;2023-06-14T07:39:21;21.00;64.50
8436;DHT22;4255;48.730;9.156;2023-06-14T07:41:47;21.20;65.30
8436;DHT22;4255;48.730;9.156;2023-06-14T07:44:13;21.20;64.70
8436;DHT22;4255;48.730;9.156;2023-06-14T07:46:38;21.30;64.70
8436;DHT22;4255;48.730;9.156;2023-06-14T07:49:04;21.20;99.90
8436;DHT22;4255;48.730;9.156;2023-06-14T07:51:30;21.30;99.90
8436;DHT22;4255;48.730;9.156;2023-06-14T07:53:56;21.30;99.90
8436;DHT22;4255;48.730;9.156;2023-06-14T07:56:21;21.40;99.90
8436;DHT22;4255;48.730;9.156;2023-06-14T07:58:48;21.50;99.90
8436;DHT22;4255;48.730;9.156;2023-06-14T08:01:14;21.60;99.90
8436;DHT22;4255;48.730;9.156;2023-06-14T08:03:40;21.50;99.90
8436;DHT22;4255;48.730;9.156;2023-06-14T08:06:07;21.60;99.90
8436;DHT22;4255;48.730;9.156;2023-06-14T08:08:33;21.60;99.90
8436;DHT22;4255;48.730;9.156;2023-06-14T08:10:58;21.80;99.90
8436;DHT22;4255;48.730;9.156;2023-06-14T08:13:24;21.50;99.90
8436;DHT22;4255;48.730;9.156;2023-06-14T08:15:50;21.50;99.90
8436;DHT22;4255;48.730;9.156;2023-06-14T08:18:16;21.70;99.90
8436;DHT22;4255;48.730;9.156;2023-06-14T08:20:41;22.00;99.90
8436;DHT22;4255;48.730;9.156;2023-06-14T08:23:07;22.20;99.90
8436;DHT22;4255;48.730;9.156;2023-06-14T08:25:34;22.10;99.90
8436;DHT22;4255;48.730;9.156;2023-06-14T08:28:00;22.20;99.90
8436;DHT22;4255;48.730;9.156;2023-06-14T08:30:26;22.20;99.90
8436;DHT22;4255;48.730;9.156;2023-06-14T08:32:51;22.20;99.90
8436;DHT22;4255;48.730;9.156;2023-06-14T08:35:17;22.00;99.90
8436;DHT22;4255;48.730;9.156;2023-06-14T08:37:43;22.00;99.90
8436;DHT22;4255;48.730;9.156;2023-06-14T08:40:20;22.40;99.90
8436;DHT22;4255;48.730;9.156;2023-06-14T08:42:55;22.60;99.90
8436;DHT22;4255;48.730;9.156;2023-06-14T08:45:22;22.50;99.90
8436;DHT22;4255;48.730;9.156;2023-06-14T08:47:49;22.50;99.90
8436;DHT22;4255;48.730;9.156;2023-06-14T08:50:21;22.60;99.90
8436;DHT22;4255;48.730;9.156;2023-06-14T08:53:08;22.50;99.90
8436;DHT22;4255;48.730;9.156;2023-06-14T08:55:36;22.40;99.90
8436;DHT22;4255;48.730;9.156;2023-06-14T08:58:05;22.30;99.90
8436;DHT22;4255;48.730;9.156;2023-06-14T09:00:30;22.40;99.90
8436;DHT22;4255;48.730;9.156;2023-06-14T09:02:58;22.70;99.90
8436;DHT22;4255;48.730;9.156;2023-06-14T09:05:24;23.10;99.90
8436;DHT22;4255;48.730;9.156;2023-06-14T09:07:51;23.30;99.90
8436;DHT22;4255;48.730;9.156;2023-06-14T09:10:16;23.70;99.90
8436;DHT22;4255;48.730;9.156;2023-06-14T09:12:42;23.60;99.90
8436;DHT22;4255;48.730;9.156;2023-06-14T09:15:09;23.60;99.90
8436;DHT22;4255;48.730;9.156;2023-06-14T09:17:35;23.70;99.90
8436;DHT22;4255;48.730;9.156;2023-06-14T09:20:04;23.70;99.90
8436;DHT22;4255;48.730;9.156;2023-06-14T09:22:32;23.20;99.90
8436;DHT22;4255;48.730;9.156;2023-06-14T09:24:57;23.40;99.90
8436;DHT22;4255;48.730;9.156;2023-06-14T09:27:25;23.80;99.90
8436;DHT22;4255;48.730;9.156;2023-06-14T09:29:52;23.80;99.90
8436;DHT22;4255;48.730;9.156;2023-06-14T09:32:18;23.40;99.90
8436;DHT22;4255;48.730;9.156;2023-06-14T09:34:43;23.30;99.90
8436;DHT22;4255;48.730;9.156;2023-06-14T09:37:09;23.30;99.90
8436;DHT22;4255;48.730;9.156;2023-06-14T09:39:35;23.20;99.90
8436;DHT22;4255;48.730;9.156;2023-06-14T09:42:00;23.40;99.90
8436;DHT22;4255;48.730;9.156;2023-06-14T09:44:27;23.60;99.90
8436;DHT22;4255;48.730;9.156;2023-06-14T09:46:55;23.50;99.90
8436;DHT22;4255;48.730;9.156;2023-06-14T09:49:21;23.40;99.90
8436;DHT22;4255;48.730;9.156;2023-06-14T09:51:50;23.70;99.90
8436;DHT22;4255;48.730;9.156;2023-06-14T09:54:21;23.90;99.90
8436;DHT22;4255;48.730;9.156;2023-06-14T09:56:48;23.70;99.90
8436;DHT22;4255;48.730;9.156;2023-06-14T09:59:20;23.80;99.90
8436;DHT22;4255;48.730;9.156;2023-06-14T10:01:47;24.30;99.90
8436;DHT22;4255;48.730;9.156;2023-06-14T10:04:15;24.60;99.90
8436;DHT22;4255;48.730;9.156;2023-06-14T10:06:43;24.70;99.90
8436;DHT22;4255;48.730;9.156;2023-06-14T10:09:12;25.00;99.90
8436;DHT22;4255;48.730;9.156;2023-06-14T10:11:38;24.60;99.90
8436;DHT22;4255;48.730;9.156;2023-06-14T10:14:10;24.40;99.90
8436;DHT22;4255;48.730;9.156;2023-06-14T10:20:02;24.10;99.90
8436;DHT22;4255;48.730;9.156;2023-06-14T10:22:44;24.40;99.90
8436;DHT22;4255;48.730;9.156;2023-06-14T10:25:26;24.50;99.90
8436;DHT22;4255;48.730;9.156;2023-06-14T10:27:52;24.90;99.90
8436;DHT22;4255;48.730;9.156;2023-06-14T10:30:25;25.30;99.90
8436;DHT22;4255;48.730;9.156;2023-06-14T10:33:07;25.80;99.90
8436;DHT22;4255;48.730;9.156;2023-06-14T10:35:33;25.80;99.90
8436;DHT22;4255;48.730;9.156;2023-06-14T10:38:12;25.60;99.90
8436;DHT22;4255;48.730;9.156;2023-06-14T10:40:39;25.40;99.90
8436;DHT22;4255;48.730;9.156;2023-06-14T10:43:22;25.30;99.90
8436;DHT22;4255;48.730;9.156;2023-06-14T10:46:14;25.60;99.90
8436;DHT22;4255;48.730;9.156;2023-06-14T10:48:41;25.50;99.90
8436;DHT22;4255;48.730;9.156;2023-06-14T10:51:15;25.30;99.90
8436;DHT22;4255;48.730;9.156;2023-06-14T10:53:46;25.10;99.90
8436;DHT22;4255;48.730;9.156;2023-06-14T10:56:27;25.20;99.90
8436;DHT22;4255;48.730;9.156;2023-06-14T10:58:54;25.50;99.90
8436;DHT22;4255;48.730;9.156;2023-06-14T11:01:32;25.50;99.90
8436;DHT22;4255;48.730;9.156;2023-06-14T11:04:08;25.10;99.90
8436;DHT22;4255;48.730;9.156;2023-06-14T11:09:28;24.60;99.90
8436;DHT22;4255;48.730;9.156;2023-06-14T11:12:01;24.40;99.90
8436;DHT22;4255;48.730;9.156;2023-06-14T11:14:30;24.20;99.90
8436;DHT22;4255;48.730;9.156;2023-06-14T11:16:56;24.50;99.90
8436;DHT22;4255;48.730;9.156;2023-06-14T11:19:22;25.00;99.90
8436;DHT22;4255;48.730;9.156;2023-06-14T11:21:50;25.20;99.90
8436;DHT22;4255;48.730;9.156;2023-06-14T11:24:17;25.30;99.90
8436;DHT22;4255;48.730;9.156;2023-06-14T11:26:42;25.40;99.90
8436;DHT22;4255;48.730;9.156;2023-06-14T11:29:08;25.40;99.90
8436;DHT22;4255;48.730;9.156;2023-06-14T11:31:33;25.70;99.90
8436;DHT22;4255;48.730;9.156;2023-06-14T11:34:00;26.20;99.90
8436;DHT22;4255;48.730;9.156;2023-06-14T11:36:30;26.20;99.90
8436;DHT22;4255;48.730;9.156;2023-06-14T11:39:00;26.20;99.90
8436;DHT22;4255;48.730;9.156;2023-06-14T11:41:39;26.60;99.90
8436;DHT22;4255;48.730;9.156;2023-06-14T11:44:05;26.90;99.90
8436;DHT22;4255;48.730;9.156;2023-06-14T11:46:31;27.30;99.90
8436;DHT22;4255;48.730;9.156;2023-06-14T11:48:57;27.60;99.90
8436;DHT22;4255;48.730;9.156;2023-06-14T11:51:23;27.90;99.90
8436;DHT22;4255;48.730;9.156;2023-06-14T11:53:49;27.60;99.90
8436;DHT22;4255;48.730;9.156;2023-06-14T11:56:15;27.20;99.90
8436;DHT22;4255;48.730;9.156;2023-06-14T11:58:43;27.20;99.90
8436;DHT22;4255;48.730;9.156;2023-06-14T12:01:09;27.10;99.90
8436;DHT22;4255;48.730;9.156;2023-06-14T12:03:34;26.70;99.90
8436;DHT22;4255;48.730;9.156;2023-06-14T12:06:08;26.30;99.90
8436;DHT22;4255;48.730;9.156;2023-06-14T12:08:37;25.80;99.90
8436;DHT22;4255;48.730;9.156;2023-06-14T12:11:06;25.10;99.90
8436;DHT22;4255;48.730;9.156;2023-06-14T12:13:34;24.50;99.90
8436;DHT22;4255;48.730;9.156;2023-06-14T12:16:01;24.50;99.90
8436;DHT22;4255;48.730;9.156;2023-06-14T12:18:37;25.00;99.90
8436;DHT22;4255;48.730;9.156;2023-06-14T12:21:08;25.40;99.90
8436;DHT22;4255;48.730;9.156;2023-06-14T12:23:47;25.60;99.90
8436;DHT22;4255;48.730;9.156;2023-06-14T12:26:19;25.50;99.90
8436;DHT22;4255;48.730;9.156;2023-06-14T12:28:46;25.70;99.90
8436;DHT22;4255;48.730;9.156;2023-06-14T12:31:14;25.60;99.90
8436;DHT22;4255;48.730;9.156;2023-06-14T12:33:40;25.70;99.90
8436;DHT22;4255;48.730;9.156;2023-06-14T12:36:07;25.60;99.90
8436;DHT22;4255;48.730;9.156;2023-06-14T12:38:33;25.70;99.90
8436;DHT22;4255;48.730;9.156;2023-06-14T12:40:59;25.80;99.90
8436;DHT22;4255;48.730;9.156;2023-06-14T12:43:25;26.00;99.90
8436;DHT22;4255;48.730;9.156;2023-06-14T12:45:51;25.80;99.90
8436;DHT22;4255;48.730;9.156;2023-06-14T12:48:17;25.40;99.90
8436;DHT22;4255;48.730;9.156;2023-06-14T12:50:43;25.30;99.90
8436;DHT22;4255;48.730;9.156;2023-06-14T12:53:08;25.60;99.90
8436;DHT22;4255;48.730;9.156;2023-06-14T12:55:34;26.10;99.90
8436;DHT22;4255;48.730;9.156;2023-06-14T12:58:00;26.40;99.90
8436;DHT22;4255;48.730;9.156;2023-06-14T13:00:25;26.60;99.90
8436;DHT22;4255;48.730;9.156;2023-06-14T13:02:51;26.40;99.90
8436;DHT22;4255;48.730;9.156;2023-06-14T13:05:18;26.20;99.90
8436;DHT22;4255;48.730;9.156;2023-06-14T13:07:43;26.10;99.90
8436;DHT22;4255;48.730;9.156;2023-06-14T13:10:10;25.90;99.90
8436;DHT22;4255;48.730;9.156;2023-06-14T13:12:36;25.50;99.90
8436;DHT22;4255;48.730;9.156;2023-06-14T13:15:02;25.10;99.90
8436;DHT22;4255;48.730;9.156;2023-06-14T13:17:27;25.10;99.90
8436;DHT22;4255;48.730;9.156;2023-06-14T13:19:53;25.20;99.90
8436;DHT22;4255;48.730;9.156;2023-06-14T13:22:19;25.70;99.90
8436;DHT22;4255;48.730;9.156;2023-06-14T13:24:44;25.70;99.90
8436;DHT22;4255;48.730;9.156;2023-06-14T13:27:10;25.90;99.90
8436;DHT22;4255;48.730;9.156;2023-06-14T13:29:36;26.30;99.90
8436;DHT22;4255;48.730;9.156;2023-06-14T13:32:02;26.60;99.90
8436;DHT22;4255;48.730;9.156;2023-06-14T13:34:28;26.50;99.90
8436;DHT22;4255;48.730;9.156;2023-06-14T13:36:54;26.60;99.90
8436;DHT22;4255;48.730;9.156;2023-06-14T13:39:19;26.50;99.90
8436;DHT22;4255;48.730;9.156;2023-06-14T13:41:45;26.70;99.90
8436;DHT22;4255;48.730;9.156;2023-06-14T13:44:10;26.70;99.90
8436;DHT22;4255;48.730;9.156;2023-06-14T13:46:41;26.40;99.90
8436;DHT22;4255;48.730;9.156;2023-06-14T13:49:08;26.10;99.90
8436;DHT22;4255;48.730;9.156;2023-06-14T13:51:34;25.80;99.90
8436;DHT22;4255;48.730;9.156;2023-06-14T13:54:00;26.10;99.90
8436;DHT22;4255;48.730;9.156;2023-06-14T13:56:26;26.10;99.90
8436;DHT22;4255;48.730;9.156;2023-06-14T13:58:52;26.20;99.90
8436;DHT22;4255;48.730;9.156;2023-06-14T14:01:18;26.30;99.90
8436;DHT22;4255;48.730;9.156;2023-06-14T14:03:46;26.40;99.90
8436;DHT22;4255;48.730;9.156;2023-06-14T14:06:12;26.70;99.90
8436;DHT22;4255;48.730;9.156;2023-06-14T14:08:38;26.90;99.90
8436;DHT22;4255;48.730;9.156;2023-06-14T14:11:05;26.90;99.90
8436;DHT22;4255;48.730;9.156;2023-06-14T14:13:31;27.00;99.90
8436;DHT22;4255;48.730;9.156;2023-06-14T14:15:57;27.30;99.90
8436;DHT22;4255;48.730;9.156;2023-06-14T14:18:22;27.50;99.90
8436;DHT22;4255;48.730;9.156;2023-06-14T14:20:48;27.70;99.90
8436;DHT22;4255;48.730;9.156;2023-06-14T14:23:14;27.50;99.90
8436;DHT22;4255;48.730;9.156;2023-06-14T14:25:40;27.30;99.90
8436;DHT22;4255;48.730;9.156;2023-06-14T14:28:06;27.20;99.90
8436;DHT22;4255;48.730;9.156;2023-06-14T14:30:31;26.60;99.90
8436;DHT22;4255;48.730;9.156;2023-06-14T14:32:58;26.60;99.90
8436;DHT22;4255;48.730;9.156;2023-06-14T14:35:23;26.50;99.90
8436;DHT22;4255;48.730;9.156;2023-06-14T14:37:51;26.80;99.90
8436;DHT22;4255;48.730;9.156;2023-06-14T14:40:17;27.00;99.90
8436;DHT22;4255;48.730;9.156;2023-06-14T14:42:43;27.00;99.90
8436;DHT22;4255;48.730;9.156;2023-06-14T14:45:08;27.10;99.90
8436;DHT22;4255;48.730;9.156;2023-06-14T14:47:34;27.40;99.90
8436;DHT22;4255;48.730;9.156;2023-06-14T14:50:00;27.70;99.90
8436;DHT22;4255;48.730;9.156;2023-06-14T14:52:25;27.70;99.90
8436;DHT22;4255;48.730;9.156;2023-06-14T14:54:52;27.50;99.90
8436;DHT22;4255;48.730;9.156;2023-06-14T14:57:18;27.10;99.90
8436;DHT22;4255;48.730;9.156;2023-06-14T14:59:44;26.50;99.90
8436;DHT22;4255;48.730;9.156;2023-06-14T15:02:09;26.40;99.90
8436;DHT22;4255;48.730;9.156;2023-06-14T15:04:35;26.40;99.90
8436;DHT22;4255;48.730;9.156;2023-06-14T15:07:01;26.20;99.90
8436;DHT22;4255;48.730;9.156;2023-06-14T15:09:27;26.10;99.90
8436;DHT22;4255;48.730;9.156;2023-06-14T15:11:52;26.00;99.90
8436;DHT22;4255;48.730;9.156;2023-06-14T15:14:18;26.00;99.90
8436;DHT22;4255;48.730;9.156;2023-06-14T15:16:43;26.20;99.90
8436;DHT22;4255;48.730;9.156;2023-06-14T15:19:09;26.20;99.90
8436;DHT22;4255;48.730;9.156;2023-06-14T15:21:35;26.30;99.90
8436;DHT22;4255;48.730;9.156;2023-06-14T15:24:01;26.00;99.90
8436;DHT22;4255;48.730;9.156;2023-06-14T15:26:27;25.90;99.90
8436;DHT22;4255;48.730;9.156;2023-06-14T15:28:54;25.90;99.90
8436;DHT22;4255;48.730;9.156;2023-06-14T15:31:19;26.10;99.90
8436;DHT22;4255;48.730;9.156;2023-06-14T15:33:45;26.30;99.90
8436;DHT22;4255;48.730;9.156;2023-06-14T15:36:11;26.50;99.90
8436;DHT22;4255;48.730;9.156;2023-06-14T15:38:36;26.70;99.90
8436;DHT22;4255;48.730;9.156;2023-06-14T15:41:02;26.40;99.90
8436;DHT22;4255;48.730;9.156;2023-06-14T15:43:28;26.20;99.90
8436;DHT22;4255;48.730;9.156;2023-06-14T15:45:54;26.00;99.90
8436;DHT22;4255;48.730;9.156;2023-06-14T15:48:19;26.10;99.90
8436;DHT22;4255;48.730;9.156;2023-06-14T15:50:46;26.30;99.90
8436;DHT22;4255;48.730;9.156;2023-06-14T15:53:12;26.70;99.90
8436;DHT22;4255;48.730;9.156;2023-06-14T15:55:37;27.20;99.90
8436;DHT22;4255;48.730;9.156;2023-06-14T15:58:03;27.30;99.90
8436;DHT22;4255;48.730;9.156;2023-06-14T16:00:28;27.30;99.90
8436;DHT22;4255;48.730;9.156;2023-06-14T16:02:54;27.70;99.90
8436;DHT22;4255;48.730;9.156;2023-06-14T16:05:19;28.10;99.90
8436;DHT22;4255;48.730;9.156;2023-06-14T16:07:45;28.00;99.90
8436;DHT22;4255;48.730;9.156;2023-06-14T16:10:11;27.80;99.90
8436;DHT22;4255;48.730;9.156;2023-06-14T16:12:37;27.30;99.90